createdAt,value
2018-05-27T00:00:33.408Z,1009.27
2018-05-27T00:01:33.427Z,1009.25
2018-05-27T00:02:33.457Z,1009.23
2018-05-27T00:03:33.537Z,1009.21
2018-05-27T00:04:33.508Z,1009.19
2018-05-27T00:05:33.531Z,1009.18
2018-05-27T00:06:33.559Z,1009.17
2018-05-27T00:07:33.584Z,1009.16
2018-05-27T00:08:33.603Z,1009.16
2018-05-27T00:09:33.634Z,1009.14
2018-05-27T00:10:33.657Z,1009.14
2018-05-27T00:11:33.688Z,1009.13
2018-05-27T00:12:33.713Z,1009.18
2018-05-27T00:13:33.790Z,1009.14
2018-05-27T00:14:33.755Z,1009.15
2018-05-27T00:15:33.780Z,1009.18
2018-05-27T00:16:33.814Z,1009.15
2018-05-27T00:17:33.830Z,1009.18
2018-05-27T00:18:33.856Z,1009.15
2018-05-27T00:19:33.882Z,1009.19
2018-05-27T00:20:33.905Z,1009.15
2018-05-27T00:21:33.933Z,1009.17
2018-05-27T00:22:33.960Z,1009.15
2018-05-27T00:23:34.035Z,1009.11
2018-05-27T00:24:34.009Z,1009.1
2018-05-27T00:25:34.035Z,1009.08
2018-05-27T00:26:34.062Z,1009.06
2018-05-27T00:27:34.085Z,1009.08
2018-05-27T00:28:34.161Z,1009.03
2018-05-27T00:29:34.136Z,1009.03
2018-05-27T00:30:34.160Z,1009.04
2018-05-27T00:31:34.192Z,1009.03
2018-05-27T00:32:34.211Z,1009.03
2018-05-27T00:33:34.230Z,1009.01
2018-05-27T00:34:34.260Z,1008.98
2018-05-27T00:35:34.284Z,1009.02
2018-05-27T00:36:34.324Z,1008.99
2018-05-27T00:37:34.335Z,1009
2018-05-27T00:38:34.356Z,1008.98
2018-05-27T00:39:34.379Z,1009
2018-05-27T00:40:34.411Z,1008.96
2018-05-27T00:41:34.429Z,1008.96
2018-05-27T00:42:34.458Z,1008.95
2018-05-27T00:43:34.534Z,1008.96
2018-05-27T00:44:34.504Z,1008.91
2018-05-27T00:45:34.529Z,1008.87
2018-05-27T00:46:34.561Z,1008.87
2018-05-27T00:47:34.581Z,1008.87
2018-05-27T00:48:34.602Z,1008.86
2018-05-27T00:49:34.631Z,1008.9
2018-05-27T00:50:34.651Z,1008.87
2018-05-27T00:51:34.684Z,1008.9
2018-05-27T00:52:34.704Z,1008.97
2018-05-27T00:53:34.725Z,1008.88
2018-05-27T00:54:34.755Z,1008.95
2018-05-27T00:55:34.779Z,1008.93
2018-05-27T00:56:34.798Z,1008.95
2018-05-27T00:57:34.823Z,1008.89
2018-05-27T00:58:34.852Z,1008.91
2018-05-27T00:59:34.887Z,1008.88
2018-05-27T01:00:34.902Z,1008.88
2018-05-27T01:01:34.922Z,1008.88
2018-05-27T01:02:34.946Z,1008.91
2018-05-27T01:03:34.979Z,1008.88
2018-05-27T01:04:34.999Z,1008.86
2018-05-27T01:05:35.026Z,1008.86
2018-05-27T01:06:35.049Z,1008.84
2018-05-27T01:07:35.069Z,1008.83
2018-05-27T01:08:35.097Z,1008.83
2018-05-27T01:09:35.120Z,1008.85
2018-05-27T01:10:35.149Z,1008.85
2018-05-27T01:11:35.171Z,1008.9
2018-05-27T01:12:35.198Z,1008.92
2018-05-27T01:13:35.219Z,1008.96
2018-05-27T01:14:35.247Z,1008.93
2018-05-27T01:15:35.268Z,1008.99
2018-05-27T01:16:35.289Z,1008.95
2018-05-27T01:17:35.316Z,1008.98
2018-05-27T01:18:35.336Z,1008.99
2018-05-27T01:19:35.370Z,1008.97
2018-05-27T01:20:35.388Z,1008.96
2018-05-27T01:21:35.419Z,1008.94
2018-05-27T01:22:35.436Z,1008.94
2018-05-27T01:23:35.459Z,1008.91
2018-05-27T01:24:35.482Z,1008.9
2018-05-27T01:25:35.509Z,1008.87
2018-05-27T01:26:35.532Z,1008.85
2018-05-27T01:27:35.558Z,1008.83
2018-05-27T01:28:35.586Z,1008.82
2018-05-27T01:29:35.612Z,1008.81
2018-05-27T01:30:35.633Z,1008.8
2018-05-27T01:31:35.657Z,1008.77
2018-05-27T01:32:35.678Z,1008.77
2018-05-27T01:33:35.704Z,1008.77
2018-05-27T01:34:35.730Z,1008.8
2018-05-27T01:35:35.758Z,1008.82
2018-05-27T01:36:35.780Z,1008.82
2018-05-27T01:37:35.800Z,1008.82
2018-05-27T01:38:35.821Z,1008.83
2018-05-27T01:39:35.849Z,1008.85
2018-05-27T01:40:35.871Z,1008.79
2018-05-27T01:41:35.904Z,1008.75
2018-05-27T01:42:35.922Z,1008.75
2018-05-27T01:43:35.949Z,1008.73
2018-05-27T01:44:35.966Z,1008.7
2018-05-27T01:45:36.000Z,1008.72
2018-05-27T01:46:36.014Z,1008.67
2018-05-27T01:47:36.040Z,1008.63
2018-05-27T01:48:36.063Z,1008.62
2018-05-27T01:49:36.094Z,1008.6
2018-05-27T01:50:36.111Z,1008.61
2018-05-27T01:51:36.135Z,1008.56
2018-05-27T01:52:36.156Z,1008.57
2018-05-27T01:53:36.188Z,1008.51
2018-05-27T01:54:36.213Z,1008.54
2018-05-27T01:55:36.237Z,1008.51
2018-05-27T01:56:36.251Z,1008.51
2018-05-27T01:57:36.275Z,1008.52
2018-05-27T01:58:36.308Z,1008.48
2018-05-27T01:59:36.341Z,1008.47
2018-05-27T02:00:36.354Z,1008.48
2018-05-27T02:01:36.374Z,1008.49
2018-05-27T02:02:36.402Z,1008.42
2018-05-27T02:03:36.426Z,1008.4
2018-05-27T02:04:36.442Z,1008.36
2018-05-27T02:05:36.465Z,1008.29
2018-05-27T02:06:36.491Z,1008.3
2018-05-27T02:07:36.513Z,1008.33
2018-05-27T02:08:36.552Z,1008.24
2018-05-27T02:09:36.560Z,1008.25
2018-05-27T02:10:36.584Z,1008.28
2018-05-27T02:11:36.615Z,1008.28
2018-05-27T02:12:36.634Z,1008.25
2018-05-27T02:13:36.655Z,1008.27
2018-05-27T02:14:36.687Z,1008.32
2018-05-27T02:15:36.702Z,1008.28
2018-05-27T02:16:36.725Z,1008.29
2018-05-27T02:17:36.755Z,1008.28
2018-05-27T02:18:36.781Z,1008.34
2018-05-27T02:19:36.800Z,1008.34
2018-05-27T02:20:36.828Z,1008.37
2018-05-27T02:21:36.849Z,1008.39
2018-05-27T02:22:36.878Z,1008.38
2018-05-27T02:23:36.902Z,1008.34
2018-05-27T02:24:36.914Z,1008.33
2018-05-27T02:25:36.937Z,1008.33
2018-05-27T02:26:36.966Z,1008.3
2018-05-27T02:27:36.988Z,1008.31
2018-05-27T02:28:37.012Z,1008.28
2018-05-27T02:29:37.039Z,1008.27
2018-05-27T02:30:37.059Z,1008.29
2018-05-27T02:31:37.082Z,1008.32
2018-05-27T02:32:37.103Z,1008.3
2018-05-27T02:33:37.130Z,1008.29
2018-05-27T02:34:37.149Z,1008.25
2018-05-27T02:35:37.177Z,1008.25
2018-05-27T02:36:37.204Z,1008.26
2018-05-27T02:37:37.226Z,1008.27
2018-05-27T02:38:37.255Z,1008.21
2018-05-27T02:39:37.269Z,1008.22
2018-05-27T02:40:37.300Z,1008.21
2018-05-27T02:41:37.317Z,1008.22
2018-05-27T02:42:37.336Z,1008.23
2018-05-27T02:43:37.367Z,1008.2
2018-05-27T02:44:37.390Z,1008.21
2018-05-27T02:45:37.409Z,1008.17
2018-05-27T02:46:37.434Z,1008.19
2018-05-27T02:47:37.465Z,1008.19
2018-05-27T02:48:37.481Z,1008.19
2018-05-27T02:49:37.509Z,1008.22
2018-05-27T02:50:37.537Z,1008.15
2018-05-27T02:51:37.554Z,1008.22
2018-05-27T02:52:37.572Z,1008.18
2018-05-27T02:53:37.594Z,1008.2
2018-05-27T02:54:37.624Z,1008.22
2018-05-27T02:55:37.643Z,1008.23
2018-05-27T02:56:37.665Z,1008.25
2018-05-27T02:57:37.692Z,1008.26
2018-05-27T02:58:37.716Z,1008.27
2018-05-27T02:59:37.738Z,1008.25
2018-05-27T03:00:37.760Z,1008.25
2018-05-27T03:01:37.781Z,1008.2
2018-05-27T03:02:37.805Z,1008.21
2018-05-27T03:03:37.827Z,1008.24
2018-05-27T03:04:37.848Z,1008.21
2018-05-27T03:05:37.875Z,1008.23
2018-05-27T03:06:37.901Z,1008.24
2018-05-27T03:07:37.918Z,1008.24
2018-05-27T03:08:37.956Z,1008.26
2018-05-27T03:09:37.967Z,1008.29
2018-05-27T03:10:37.987Z,1008.26
2018-05-27T03:11:38.012Z,1008.24
2018-05-27T03:12:38.042Z,1008.27
2018-05-27T03:13:38.073Z,1008.29
2018-05-27T03:14:38.085Z,1008.28
2018-05-27T03:15:38.107Z,1008.26
2018-05-27T03:16:38.127Z,1008.33
2018-05-27T03:17:38.155Z,1008.31
2018-05-27T03:18:38.179Z,1008.31
2018-05-27T03:19:38.198Z,1008.37
2018-05-27T03:20:38.221Z,1008.42
2018-05-27T03:21:38.244Z,1008.45
2018-05-27T03:22:38.261Z,1008.44
2018-05-27T03:23:38.288Z,1008.43
2018-05-27T03:24:38.315Z,1008.42
2018-05-27T03:25:38.333Z,1008.41
2018-05-27T03:26:38.358Z,1008.39
2018-05-27T03:27:38.383Z,1008.41
2018-05-27T03:28:38.401Z,1008.37
2018-05-27T03:29:38.422Z,1008.39
2018-05-27T03:30:38.447Z,1008.4
2018-05-27T03:31:38.468Z,1008.39
2018-05-27T03:32:38.491Z,1008.39
2018-05-27T03:33:38.514Z,1008.4
2018-05-27T03:34:38.539Z,1008.37
2018-05-27T03:35:38.559Z,1008.37
2018-05-27T03:36:38.587Z,1008.38
2018-05-27T03:37:38.610Z,1008.4
2018-05-27T03:38:38.633Z,1008.36
2018-05-27T03:39:38.658Z,1008.34
2018-05-27T03:40:38.679Z,1008.34
2018-05-27T03:41:38.703Z,1008.34
2018-05-27T03:42:38.723Z,1008.36
2018-05-27T03:43:38.747Z,1008.36
2018-05-27T03:44:38.767Z,1008.34
2018-05-27T03:45:38.794Z,1008.33
2018-05-27T03:46:38.817Z,1008.32
2018-05-27T03:47:38.835Z,1008.36
2018-05-27T03:48:38.855Z,1008.32
2018-05-27T03:49:38.886Z,1008.31
2018-05-27T03:50:38.909Z,1008.32
2018-05-27T03:51:38.928Z,1008.28
2018-05-27T03:52:38.953Z,1008.27
2018-05-27T03:53:38.976Z,1008.31
2018-05-27T03:54:38.994Z,1008.31
2018-05-27T03:55:39.022Z,1008.33
2018-05-27T03:56:39.041Z,1008.36
2018-05-27T03:57:39.064Z,1008.34
2018-05-27T03:58:39.090Z,1008.35
2018-05-27T03:59:39.114Z,1008.35
2018-05-27T04:00:39.130Z,1008.38
2018-05-27T04:01:39.154Z,1008.4
2018-05-27T04:02:39.179Z,1008.46
2018-05-27T04:03:39.199Z,1008.48
2018-05-27T04:04:39.228Z,1008.51
2018-05-27T04:05:39.246Z,1008.55
2018-05-27T04:06:39.271Z,1008.58
2018-05-27T04:07:39.306Z,1008.6
2018-05-27T04:08:39.309Z,1008.63
2018-05-27T04:09:39.340Z,1008.66
2018-05-27T04:10:39.404Z,1008.62
2018-05-27T04:11:39.386Z,1008.6
2018-05-27T04:12:39.407Z,1008.58
2018-05-27T04:13:39.430Z,1008.54
2018-05-27T04:14:39.450Z,1008.52
2018-05-27T04:15:39.570Z,1008.49
2018-05-27T04:16:39.491Z,1008.48
2018-05-27T04:17:39.515Z,1008.5
2018-05-27T04:18:39.540Z,1008.52
2018-05-27T04:19:39.558Z,1008.51
2018-05-27T04:20:39.634Z,1008.51
2018-05-27T04:21:39.602Z,1008.47
2018-05-27T04:22:39.625Z,1008.5
2018-05-27T04:23:39.661Z,1008.52
2018-05-27T04:24:39.674Z,1008.54
2018-05-27T04:25:39.691Z,1008.5
2018-05-27T04:26:39.715Z,1008.53
2018-05-27T04:27:39.737Z,1008.49
2018-05-27T04:28:39.792Z,1008.51
2018-05-27T04:29:39.787Z,1008.54
2018-05-27T04:30:39.808Z,1008.53
2018-05-27T04:31:39.832Z,1008.54
2018-05-27T04:32:39.849Z,1008.49
2018-05-27T04:33:39.877Z,1008.51
2018-05-27T04:34:39.900Z,1008.55
2018-05-27T04:35:39.920Z,1008.53
2018-05-27T04:36:39.943Z,1008.48
2018-05-27T04:37:39.972Z,1008.44
2018-05-27T04:38:39.988Z,1008.44
2018-05-27T04:39:40.009Z,1008.41
2018-05-27T04:40:40.035Z,1008.4
2018-05-27T04:41:40.060Z,1008.4
2018-05-27T04:42:40.082Z,1008.38
2018-05-27T04:43:40.100Z,1008.4
2018-05-27T04:44:40.122Z,1008.39
2018-05-27T04:45:40.153Z,1008.4
2018-05-27T04:46:40.163Z,1008.36
2018-05-27T04:47:40.191Z,1008.31
2018-05-27T04:48:40.213Z,1008.33
2018-05-27T04:49:40.233Z,1008.34
2018-05-27T04:50:40.261Z,1008.32
2018-05-27T04:51:40.284Z,1008.27
2018-05-27T04:52:40.304Z,1008.32
2018-05-27T04:53:40.323Z,1008.27
2018-05-27T04:54:40.350Z,1008.26
2018-05-27T04:55:40.374Z,1008.29
2018-05-27T04:56:40.394Z,1008.24
2018-05-27T04:57:40.410Z,1008.25
2018-05-27T04:58:40.437Z,1008.23
2018-05-27T04:59:40.466Z,1008.23
2018-05-27T05:00:40.486Z,1008.25
2018-05-27T05:01:40.500Z,1008.23
2018-05-27T05:02:40.528Z,1008.24
2018-05-27T05:03:40.545Z,1008.2
2018-05-27T05:04:40.575Z,1008.18
2018-05-27T05:05:40.597Z,1008.17
2018-05-27T05:06:40.612Z,1008.2
2018-05-27T05:07:40.642Z,1008.2
2018-05-27T05:08:40.667Z,1008.21
2018-05-27T05:09:40.682Z,1008.21
2018-05-27T05:10:40.705Z,1008.22
2018-05-27T05:11:40.728Z,1008.22
2018-05-27T05:12:40.757Z,1008.2
2018-05-27T05:13:40.776Z,1008.2
2018-05-27T05:14:40.796Z,1008.15
2018-05-27T05:15:40.821Z,1008.2
2018-05-27T05:16:40.837Z,1008.19
2018-05-27T05:17:40.860Z,1008.17
2018-05-27T05:18:40.889Z,1008.18
2018-05-27T05:19:40.903Z,1008.16
2018-05-27T05:20:40.932Z,1008.18
2018-05-27T05:21:40.957Z,1008.19
2018-05-27T05:22:40.971Z,1008.19
2018-05-27T05:23:40.994Z,1008.19
2018-05-27T05:24:41.015Z,1008.19
2018-05-27T05:25:41.038Z,1008.22
2018-05-27T05:26:41.064Z,1008.25
2018-05-27T05:27:41.102Z,1008.23
2018-05-27T05:28:41.111Z,1008.21
2018-05-27T05:29:41.134Z,1008.25
2018-05-27T05:30:41.155Z,1008.26
2018-05-27T05:31:41.173Z,1008.27
2018-05-27T05:32:41.198Z,1008.28
2018-05-27T05:33:41.217Z,1008.26
2018-05-27T05:34:41.240Z,1008.25
2018-05-27T05:35:41.265Z,1008.29
2018-05-27T05:36:41.283Z,1008.29
2018-05-27T05:37:41.307Z,1008.34
2018-05-27T05:38:41.327Z,1008.37
2018-05-27T05:39:41.353Z,1008.38
2018-05-27T05:40:41.378Z,1008.44
2018-05-27T05:41:41.397Z,1008.42
2018-05-27T05:42:41.425Z,1008.38
2018-05-27T05:43:41.515Z,1008.36
2018-05-27T05:44:41.466Z,1008.38
2018-05-27T05:45:41.492Z,1008.37
2018-05-27T05:46:41.512Z,1008.41
2018-05-27T05:47:41.532Z,1008.42
2018-05-27T05:48:41.558Z,1008.46
2018-05-27T05:49:41.575Z,1008.45
2018-05-27T05:50:41.601Z,1008.43
2018-05-27T05:51:41.622Z,1008.45
2018-05-27T05:52:41.645Z,1008.42
2018-05-27T05:53:41.670Z,1008.41
2018-05-27T05:54:41.691Z,1008.48
2018-05-27T05:55:41.707Z,1008.43
2018-05-27T05:56:41.741Z,1008.45
2018-05-27T05:57:41.752Z,1008.44
2018-05-27T05:58:41.775Z,1008.48
2018-05-27T05:59:41.799Z,1008.5
2018-05-27T06:00:41.828Z,1008.49
2018-05-27T06:01:41.847Z,1008.51
2018-05-27T06:02:41.870Z,1008.5
2018-05-27T06:03:41.896Z,1008.56
2018-05-27T06:04:41.910Z,1008.58
2018-05-27T06:05:41.934Z,1008.57
2018-05-27T06:06:41.953Z,1008.63
2018-05-27T06:07:41.983Z,1008.64
2018-05-27T06:08:42.008Z,1008.62
2018-05-27T06:09:42.030Z,1008.61
2018-05-27T06:10:42.052Z,1008.68
2018-05-27T06:11:42.074Z,1008.69
2018-05-27T06:12:42.093Z,1008.7
2018-05-27T06:13:42.111Z,1008.75
2018-05-27T06:14:42.142Z,1008.78
2018-05-27T06:15:42.164Z,1008.79
2018-05-27T06:16:42.188Z,1008.75
2018-05-27T06:17:42.207Z,1008.79
2018-05-27T06:18:42.229Z,1008.77
2018-05-27T06:19:42.303Z,1008.75
2018-05-27T06:20:42.278Z,1008.76
2018-05-27T06:21:42.300Z,1008.79
2018-05-27T06:22:42.318Z,1008.82
2018-05-27T06:23:42.345Z,1008.81
2018-05-27T06:24:42.364Z,1008.84
2018-05-27T06:25:42.390Z,1008.82
2018-05-27T06:26:42.408Z,1008.84
2018-05-27T06:27:42.431Z,1008.87
2018-05-27T06:28:42.458Z,1008.85
2018-05-27T06:29:42.477Z,1008.9
2018-05-27T06:30:42.500Z,1008.88
2018-05-27T06:31:42.523Z,1008.92
2018-05-27T06:32:42.545Z,1008.92
2018-05-27T06:33:42.569Z,1008.93
2018-05-27T06:34:42.585Z,1008.94
2018-05-27T06:35:42.612Z,1008.95
2018-05-27T06:36:42.638Z,1009
2018-05-27T06:37:42.661Z,1008.96
2018-05-27T06:38:42.750Z,1008.99
2018-05-27T06:39:42.703Z,1008.97
2018-05-27T06:40:42.729Z,1008.98
2018-05-27T06:41:42.804Z,1009.01
2018-05-27T06:42:42.770Z,1009
2018-05-27T06:43:42.789Z,1008.99
2018-05-27T06:44:42.816Z,1008.99
2018-05-27T06:45:42.835Z,1008.97
2018-05-27T06:46:42.862Z,1009.02
2018-05-27T06:47:42.882Z,1009.03
2018-05-27T06:48:42.902Z,1009
2018-05-27T06:49:42.934Z,1009.06
2018-05-27T06:50:42.951Z,1009.05
2018-05-27T06:51:42.978Z,1009.07
2018-05-27T06:52:43.000Z,1009.04
2018-05-27T06:53:43.020Z,1009.06
2018-05-27T06:54:43.042Z,1009.09
2018-05-27T06:55:43.071Z,1009.1
2018-05-27T06:56:43.093Z,1009.13
2018-05-27T06:57:43.112Z,1009.1
2018-05-27T06:58:43.137Z,1009.13
2018-05-27T06:59:43.159Z,1009.11
2018-05-27T07:00:43.186Z,1009.12
2018-05-27T07:01:43.208Z,1009.11
2018-05-27T07:02:43.225Z,1009.08
2018-05-27T07:03:43.251Z,1009.06
2018-05-27T07:04:43.390Z,1009.09
2018-05-27T07:05:43.296Z,1009.09
2018-05-27T07:06:43.324Z,1009.12
2018-05-27T07:07:43.342Z,1009.09
2018-05-27T07:08:43.369Z,1009.14
2018-05-27T07:09:43.388Z,1009.12
2018-05-27T07:10:43.410Z,1009.08
2018-05-27T07:11:43.484Z,1009.08
2018-05-27T07:12:43.460Z,1009.06
2018-05-27T07:13:43.484Z,1009.04
2018-05-27T07:14:43.510Z,1009.02
2018-05-27T07:15:43.528Z,1008.99
2018-05-27T07:16:43.553Z,1009.03
2018-05-27T07:17:43.572Z,1008.98
2018-05-27T07:18:43.598Z,1008.99
2018-05-27T07:19:43.626Z,1009
2018-05-27T07:20:43.648Z,1008.97
2018-05-27T07:21:43.674Z,1009.01
2018-05-27T07:22:43.696Z,1008.97
2018-05-27T07:23:43.724Z,1008.97
2018-05-27T07:24:43.741Z,1008.99
2018-05-27T07:25:43.766Z,1008.99
2018-05-27T07:26:43.787Z,1009.02
2018-05-27T07:27:43.812Z,1009.03
2018-05-27T07:28:43.839Z,1009.04
2018-05-27T07:29:43.859Z,1009.03
2018-05-27T07:30:43.878Z,1009.08
2018-05-27T07:31:43.910Z,1009.05
2018-05-27T07:32:43.930Z,1009.05
2018-05-27T07:33:43.953Z,1009.06
2018-05-27T07:34:43.979Z,1009.12
2018-05-27T07:35:44.006Z,1009.18
2018-05-27T07:36:44.027Z,1009.12
2018-05-27T07:37:44.046Z,1009.13
2018-05-27T07:38:44.077Z,1009.13
2018-05-27T07:39:44.094Z,1009.13
2018-05-27T07:40:44.132Z,1009.14
2018-05-27T07:41:44.140Z,1009.13
2018-05-27T07:42:44.164Z,1009.1
2018-05-27T07:43:44.197Z,1009.13
2018-05-27T07:44:44.221Z,1009.08
2018-05-27T07:45:44.241Z,1009.14
2018-05-27T07:46:44.273Z,1009.12
2018-05-27T07:47:44.290Z,1009.13
2018-05-27T07:48:44.311Z,1009.2
2018-05-27T07:49:44.339Z,1009.18
2018-05-27T07:50:44.364Z,1009.18
2018-05-27T07:51:44.387Z,1009.2
2018-05-27T07:52:44.409Z,1009.22
2018-05-27T07:53:44.439Z,1009.21
2018-05-27T07:54:44.461Z,1009.24
2018-05-27T07:55:44.488Z,1009.27
2018-05-27T07:56:44.513Z,1009.29
2018-05-27T07:57:44.567Z,1009.23
2018-05-27T07:58:44.557Z,1009.23
2018-05-27T07:59:44.580Z,1009.22
2018-05-27T08:00:44.609Z,1009.22
2018-05-27T08:01:44.633Z,1009.17
2018-05-27T08:02:44.653Z,1009.18
2018-05-27T08:03:44.677Z,1009.2
2018-05-27T08:04:44.699Z,1009.17
2018-05-27T08:05:44.731Z,1009.18
2018-05-27T08:06:44.755Z,1009.14
2018-05-27T08:07:44.780Z,1009.13
2018-05-27T08:08:44.805Z,1009.19
2018-05-27T08:09:44.824Z,1009.14
2018-05-27T08:10:44.853Z,1009.18
2018-05-27T08:11:44.870Z,1009.16
2018-05-27T08:12:44.895Z,1009.18
2018-05-27T08:13:44.927Z,1009.19
2018-05-27T08:14:44.950Z,1009.25
2018-05-27T08:15:44.976Z,1009.25
2018-05-27T08:16:45.005Z,1009.23
2018-05-27T08:17:45.019Z,1009.25
2018-05-27T08:18:45.042Z,1009.29
2018-05-27T08:19:45.071Z,1009.33
2018-05-27T08:20:45.103Z,1009.36
2018-05-27T08:21:45.119Z,1009.34
2018-05-27T08:22:45.144Z,1009.34
2018-05-27T08:23:45.171Z,1009.34
2018-05-27T08:24:45.199Z,1009.33
2018-05-27T08:25:45.224Z,1009.31
2018-05-27T08:26:45.244Z,1009.34
2018-05-27T08:27:45.270Z,1009.33
2018-05-27T08:28:45.300Z,1009.3
2018-05-27T08:29:45.319Z,1009.31
2018-05-27T08:30:45.344Z,1009.32
2018-05-27T08:31:45.365Z,1009.38
2018-05-27T08:32:45.393Z,1009.39
2018-05-27T08:33:45.421Z,1009.41
2018-05-27T08:34:45.442Z,1009.44
2018-05-27T08:35:45.468Z,1009.45
2018-05-27T08:36:45.500Z,1009.44
2018-05-27T08:37:45.522Z,1009.45
2018-05-27T08:38:45.540Z,1009.42
2018-05-27T08:39:45.575Z,1009.37
2018-05-27T08:40:45.594Z,1009.34
2018-05-27T08:41:45.622Z,1009.35
2018-05-27T08:42:45.644Z,1009.41
2018-05-27T08:43:45.669Z,1009.37
2018-05-27T08:44:45.693Z,1009.38
2018-05-27T08:45:45.718Z,1009.42
2018-05-27T08:46:45.744Z,1009.38
2018-05-27T08:47:45.768Z,1009.38
2018-05-27T08:48:45.790Z,1009.39
2018-05-27T08:49:45.824Z,1009.43
2018-05-27T08:50:45.858Z,1009.41
2018-05-27T08:51:45.870Z,1009.43
2018-05-27T08:52:45.896Z,1009.46
2018-05-27T08:53:45.931Z,1009.45
2018-05-27T08:54:45.945Z,1009.44
2018-05-27T08:55:45.976Z,1009.46
2018-05-27T08:56:45.993Z,1009.47
2018-05-27T08:57:46.021Z,1009.45
2018-05-27T08:58:46.051Z,1009.45
2018-05-27T08:59:46.077Z,1009.47
2018-05-27T09:00:46.095Z,1009.43
2018-05-27T09:01:46.142Z,1009.37
2018-05-27T09:02:46.149Z,1009.35
2018-05-27T09:03:46.214Z,1009.4
2018-05-27T09:04:46.201Z,1009.4
2018-05-27T09:05:46.225Z,1009.38
2018-05-27T09:06:46.250Z,1009.41
2018-05-27T09:07:46.331Z,1009.41
2018-05-27T09:08:46.305Z,1009.41
2018-05-27T09:09:46.335Z,1009.4
2018-05-27T09:10:46.355Z,1009.4
2018-05-27T09:11:46.384Z,1009.41
2018-05-27T09:12:46.408Z,1009.35
2018-05-27T09:13:46.429Z,1009.39
2018-05-27T09:14:46.458Z,1009.36
2018-05-27T09:15:46.484Z,1009.36
2018-05-27T09:16:46.511Z,1009.34
2018-05-27T09:17:46.584Z,1009.38
2018-05-27T09:18:46.557Z,1009.33
2018-05-27T09:19:46.593Z,1009.28
2018-05-27T09:20:46.610Z,1009.31
2018-05-27T09:21:46.642Z,1009.31
2018-05-27T09:22:46.670Z,1009.34
2018-05-27T09:23:46.697Z,1009.33
2018-05-27T09:24:46.748Z,1009.32
2018-05-27T09:25:46.744Z,1009.31
2018-05-27T09:26:46.776Z,1009.35
2018-05-27T09:27:46.800Z,1009.34
2018-05-27T09:28:46.820Z,1009.35
2018-05-27T09:29:46.847Z,1009.32
2018-05-27T09:30:46.883Z,1009.28
2018-05-27T09:31:46.907Z,1009.28
2018-05-27T09:32:46.930Z,1009.23
2018-05-27T09:33:46.958Z,1009.23
2018-05-27T09:34:46.982Z,1009.23
2018-05-27T09:35:47.009Z,1009.27
2018-05-27T09:36:47.038Z,1009.26
2018-05-27T09:37:47.058Z,1009.25
2018-05-27T09:38:47.089Z,1009.24
2018-05-27T09:39:47.116Z,1009.19
2018-05-27T09:40:47.137Z,1009.19
2018-05-27T09:41:47.170Z,1009.19
2018-05-27T09:42:47.195Z,1009.16
2018-05-27T09:43:47.224Z,1009.13
2018-05-27T09:44:47.252Z,1009.08
2018-05-27T09:45:47.271Z,1009.07
2018-05-27T09:46:47.298Z,1009.07
2018-05-27T09:47:47.330Z,1009.06
2018-05-27T09:48:47.350Z,1009.07
2018-05-27T09:49:47.379Z,1009.03
2018-05-27T09:50:47.407Z,1009.04
2018-05-27T09:51:47.439Z,1009.03
2018-05-27T09:52:47.463Z,1009.03
2018-05-27T09:53:47.487Z,1009.04
2018-05-27T09:54:47.520Z,1009.05
2018-05-27T09:55:47.545Z,1009.05
2018-05-27T09:56:47.569Z,1009.07
2018-05-27T09:57:47.652Z,1009.01
2018-05-27T09:58:47.627Z,1008.99
2018-05-27T09:59:47.643Z,1008.92
2018-05-27T10:00:47.679Z,1008.92
2018-05-27T10:01:47.699Z,1008.89
2018-05-27T10:02:47.729Z,1008.85
2018-05-27T10:03:47.752Z,1008.87
2018-05-27T10:04:47.784Z,1008.9
2018-05-27T10:05:47.801Z,1008.91
2018-05-27T10:06:47.834Z,1008.94
2018-05-27T10:07:47.859Z,1008.94
2018-05-27T10:08:47.890Z,1008.99
2018-05-27T10:09:47.918Z,1009.04
2018-05-27T10:10:47.944Z,1009.02
2018-05-27T10:11:48.033Z,1009.04
2018-05-27T10:12:48.001Z,1008.98
2018-05-27T10:13:48.020Z,1008.96
2018-05-27T10:14:48.045Z,1008.96
2018-05-27T10:15:48.081Z,1008.96
2018-05-27T10:16:48.106Z,1008.95
2018-05-27T10:17:48.128Z,1008.96
2018-05-27T10:18:48.151Z,1008.94
2018-05-27T10:19:48.180Z,1008.93
2018-05-27T10:20:48.211Z,1008.91
2018-05-27T10:21:48.240Z,1008.91
2018-05-27T10:22:48.266Z,1008.86
2018-05-27T10:23:48.288Z,1008.89
2018-05-27T10:24:48.313Z,1008.87
2018-05-27T10:25:48.403Z,1008.88
2018-05-27T10:26:48.366Z,1008.81
2018-05-27T10:27:48.398Z,1008.85
2018-05-27T10:28:48.430Z,1008.85
2018-05-27T10:29:48.453Z,1008.83
2018-05-27T10:30:48.484Z,1008.83
2018-05-27T10:31:48.503Z,1008.86
2018-05-27T10:32:48.550Z,1008.81
2018-05-27T10:33:48.566Z,1008.83
2018-05-27T10:34:48.585Z,1008.84
2018-05-27T10:35:48.612Z,1008.84
2018-05-27T10:36:48.641Z,1008.81
2018-05-27T10:37:48.670Z,1008.85
2018-05-27T10:38:48.696Z,1008.87
2018-05-27T10:39:48.725Z,1008.87
2018-05-27T10:40:48.748Z,1008.85
2018-05-27T10:41:48.778Z,1008.85
2018-05-27T10:42:48.811Z,1008.83
2018-05-27T10:43:48.840Z,1008.81
2018-05-27T10:44:48.858Z,1008.84
2018-05-27T10:45:48.896Z,1008.83
2018-05-27T10:46:48.917Z,1008.8
2018-05-27T10:47:48.944Z,1008.8
2018-05-27T10:48:48.972Z,1008.77
2018-05-27T10:49:49.000Z,1008.81
2018-05-27T10:50:49.029Z,1008.78
2018-05-27T10:51:49.054Z,1008.75
2018-05-27T10:52:49.081Z,1008.71
2018-05-27T10:53:49.105Z,1008.73
2018-05-27T10:54:49.137Z,1008.72
2018-05-27T10:55:49.164Z,1008.66
2018-05-27T10:56:49.187Z,1008.67
2018-05-27T10:57:49.215Z,1008.64
2018-05-27T10:58:49.302Z,1008.63
2018-05-27T10:59:49.317Z,1008.62
2018-05-27T11:00:49.300Z,1008.63
2018-05-27T11:01:49.332Z,1008.66
2018-05-27T11:02:49.356Z,1008.66
2018-05-27T11:03:49.439Z,1008.65
2018-05-27T11:04:49.413Z,1008.65
2018-05-27T11:05:49.559Z,1008.66
2018-05-27T11:06:49.471Z,1008.65
2018-05-27T11:07:49.496Z,1008.61
2018-05-27T11:08:49.573Z,1008.64
2018-05-27T11:09:49.556Z,1008.62
2018-05-27T11:10:49.580Z,1008.61
2018-05-27T11:11:49.604Z,1008.61
2018-05-27T11:12:49.638Z,1008.57
2018-05-27T11:13:49.668Z,1008.57
2018-05-27T11:14:49.688Z,1008.62
2018-05-27T11:15:49.720Z,1008.62
2018-05-27T11:16:49.771Z,1008.62
2018-05-27T11:17:49.778Z,1008.62
2018-05-27T11:18:49.801Z,1008.6
2018-05-27T11:19:49.839Z,1008.63
2018-05-27T11:20:49.856Z,1008.59
2018-05-27T11:21:49.889Z,1008.63
2018-05-27T11:22:49.916Z,1008.6
2018-05-27T11:23:49.952Z,1008.56
2018-05-27T11:24:49.974Z,1008.58
2018-05-27T11:25:50.002Z,1008.59
2018-05-27T11:26:50.033Z,1008.55
2018-05-27T11:27:50.061Z,1008.59
2018-05-27T11:28:50.090Z,1008.54
2018-05-27T11:29:50.125Z,1008.57
2018-05-27T11:30:50.148Z,1008.57
2018-05-27T11:31:50.173Z,1008.54
2018-05-27T11:32:50.207Z,1008.49
2018-05-27T11:33:50.237Z,1008.5
2018-05-27T11:34:50.259Z,1008.55
2018-05-27T11:35:50.290Z,1008.52
2018-05-27T11:36:50.316Z,1008.54
2018-05-27T11:37:50.346Z,1008.48
2018-05-27T11:38:50.374Z,1008.51
2018-05-27T11:39:50.409Z,1008.46
2018-05-27T11:40:50.447Z,1008.46
2018-05-27T11:41:50.459Z,1008.46
2018-05-27T11:42:50.493Z,1008.49
2018-05-27T11:43:50.528Z,1008.45
2018-05-27T11:44:50.551Z,1008.38
2018-05-27T11:45:50.582Z,1008.4
2018-05-27T11:46:50.611Z,1008.4
2018-05-27T11:47:50.636Z,1008.39
2018-05-27T11:48:50.672Z,1008.37
2018-05-27T11:49:50.698Z,1008.35
2018-05-27T11:50:50.730Z,1008.31
2018-05-27T11:51:50.759Z,1008.31
2018-05-27T11:52:50.785Z,1008.29
2018-05-27T11:53:50.825Z,1008.25
2018-05-27T11:54:50.850Z,1008.22
2018-05-27T11:55:50.878Z,1008.25
2018-05-27T11:56:50.905Z,1008.22
2018-05-27T11:57:50.937Z,1008.26
2018-05-27T11:58:50.973Z,1008.22
2018-05-27T11:59:51.001Z,1008.23
2018-05-27T12:00:51.026Z,1008.23
2018-05-27T12:01:51.058Z,1008.22
2018-05-27T12:02:51.091Z,1008.19
2018-05-27T12:03:51.123Z,1008.18
2018-05-27T12:04:51.162Z,1008.14
2018-05-27T12:05:51.180Z,1008.12
2018-05-27T12:06:51.215Z,1008.13
2018-05-27T12:07:51.246Z,1008.1
2018-05-27T12:08:51.272Z,1008.11